Time;durP1;ratioP1;P1;durP2;ratioP2;P2;SDS_P1;SDS_P2;PMS_P1;PMS_P2;Temp;Humidity;BMP_temperature;BMP_pressure;BME280_temperature;BME280_humidity;BME280_pressure;Samples;Min_cycle;Max_cycle;Signal;HPM_P1;HPM_P2
2022/12/08 00:01:33;;;;;;;1.23;0.10;;;;;;;;;;4993624;28;20027;-76
2022/12/08 00:03:59;;;;;;;1.35;0.10;;;;;;;;;;4973578;28;20058;-76
2022/12/08 00:09:32;;;;;;;2.45;0.50;;;;;;;;;;4974873;28;20045;-75
2022/12/08 00:12:03;;;;;;;2.92;0.40;;;;;;;;;;4974946;28;20031;-75
2022/12/08 00:14:31;;;;;;;3.75;0.43;;;;;;;;;;4974790;28;20038;-75
2022/12/08 00:16:57;;;;;;;3.28;0.40;;;;;;;;;;4957586;28;20129;-76
2022/12/08 00:19:24;;;;;;;1.65;0.95;;;;;;;;;;4984376;28;20022;-76
2022/12/08 00:21:51;;;;;;;1.70;0.45;;;;;;;;;;4980288;28;20049;-76
2022/12/08 00:24:17;;;;;;;1.33;0.32;;;;;;;;;;4991058;28;20027;-75
2022/12/08 00:26:43;;;;;;;2.45;0.40;;;;;;;;;;4994172;28;20023;-75
2022/12/08 00:29:09;;;;;;;2.53;0.50;;;;;;;;;;4993981;28;20113;-76
2022/12/08 00:31:35;;;;;;;3.95;0.30;;;;;;;;;;4994172;28;20054;-75
2022/12/08 00:34:01;;;;;;;3.50;0.50;;;;;;;;;;4980615;28;20035;-76
2022/12/08 00:36:27;;;;;;;0.35;0.20;;;;;;;;;;4991711;28;20029;-76
2022/12/08 00:38:54;;;;;;;5.00;0.38;;;;;;;;;;4989904;28;20048;-75
2022/12/08 00:42:22;;;;;;;4.05;0.40;;;;;;;;;;4997300;28;20495;-76
2022/12/08 00:44:18;;;;;;;2.45;0.47;;;;;;;;;;4988911;28;20035;-76
2022/12/08 00:46:44;;;;;;;1.63;0.10;;;;;;;;;;4997937;28;20469;-76
2022/12/08 00:49:11;;;;;;;1.63;0.10;;;;;;;;;;4997967;28;20581;-76
2022/12/08 00:51:37;;;;;;;1.23;0.10;;;;;;;;;;4997834;28;20022;-76
2022/12/08 00:54:03;;;;;;;1.25;0.10;;;;;;;;;;4997742;28;20184;-76
2022/12/08 00:56:29;;;;;;;0.75;0.10;;;;;;;;;;4997794;28;20061;-75
2022/12/08 00:58:55;;;;;;;0.50;0.10;;;;;;;;;;4997820;28;20058;-76
2022/12/08 01:01:21;;;;;;;3.63;0.20;;;;;;;;;;4997671;28;20029;-76
2022/12/08 01:03:47;;;;;;;1.63;0.22;;;;;;;;;;4996759;28;20026;-76
2022/12/08 01:06:13;;;;;;;0.40;0.35;;;;;;;;;;4996505;28;20030;-75
2022/12/08 01:08:40;;;;;;;1.92;0.28;;;;;;;;;;4996848;28;20428;-76
2022/12/08 01:11:07;;;;;;;1.38;0.32;;;;;;;;;;4997326;28;20023;-75
2022/12/08 01:13:34;;;;;;;4.95;0.40;;;;;;;;;;4997574;28;20026;-76
2022/12/08 01:16:00;;;;;;;1.00;0.30;;;;;;;;;;4997220;28;20054;-76
2022/12/08 01:18:26;;;;;;;2.47;0.40;;;;;;;;;;4997555;28;20065;-76
2022/12/08 01:20:52;;;;;;;4.75;0.60;;;;;;;;;;4997363;28;20101;-76
2022/12/08 01:23:18;;;;;;;2.53;0.30;;;;;;;;;;4997345;28;20477;-76
2022/12/08 01:25:44;;;;;;;0.90;0.17;;;;;;;;;;4997291;28;20077;-76
2022/12/08 01:28:10;;;;;;;2.33;0.30;;;;;;;;;;4997142;28;20027;-76
2022/12/08 01:30:39;;;;;;;1.50;0.22;;;;;;;;;;4997153;28;20373;-76
2022/12/08 01:33:05;;;;;;;0.75;0.20;;;;;;;;;;4997121;28;20033;-75
2022/12/08 01:35:33;;;;;;;1.20;0.15;;;;;;;;;;4997121;28;20031;-75
2022/12/08 01:37:59;;;;;;;2.15;0.17;;;;;;;;;;4997060;28;20389;-75
2022/12/08 01:40:25;;;;;;;3.80;0.30;;;;;;;;;;4996933;28;20488;-75
2022/12/08 01:42:51;;;;;;;2.45;0.43;;;;;;;;;;4996960;28;20023;-75
2022/12/08 01:45:22;;;;;;;1.88;0.20;;;;;;;;;;4997111;28;20084;-76
2022/12/08 01:47:49;;;;;;;0.15;0.13;;;;;;;;;;4996728;28;20041;-76
2022/12/08 01:50:16;;;;;;;1.63;0.30;;;;;;;;;;4996717;28;20037;-76
2022/12/08 01:52:45;;;;;;;4.63;0.50;;;;;;;;;;4996704;28;20358;-76
2022/12/08 01:55:16;;;;;;;3.88;0.30;;;;;;;;;;4996502;28;20054;-76
2022/12/08 01:57:53;;;;;;;2.88;0.47;;;;;;;;;;4987176;28;20434;-76
2022/12/08 02:00:21;;;;;;;2.35;0.20;;;;;;;;;;4977262;28;20031;-76
2022/12/08 02:03:00;;;;;;;2.20;0.30;;;;;;;;;;4976983;28;20027;-76
2022/12/08 02:05:27;;;;;;;0.10;0.10;;;;;;;;;;4977110;28;20049;-75
2022/12/08 02:07:54;;;;;;;0.32;0.10;;;;;;;;;;4977076;28;20050;-76
2022/12/08 02:10:22;;;;;;;1.83;0.10;;;;;;;;;;4989258;28;20138;-76
2022/12/08 02:12:49;;;;;;;0.20;0.10;;;;;;;;;;4996372;28;20023;-75
2022/12/08 02:15:15;;;;;;;1.83;0.20;;;;;;;;;;4996334;28;20374;-76
2022/12/08 02:17:54;;;;;;;0.70;0.20;;;;;;;;;;4996307;28;20166;-75
2022/12/08 02:20:28;;;;;;;1.55;0.10;;;;;;;;;;4996357;28;20474;-76
2022/12/08 02:23:01;;;;;;;2.15;0.30;;;;;;;;;;4996269;28;20030;-75
2022/12/08 02:25:27;;;;;;;0.00;0.00;;;;;;;;;;4996134;28;20041;-76
2022/12/08 02:28:11;;;;;;;1.17;0.10;;;;;;;;;;4996135;28;20030;-75
2022/12/08 02:30:40;;;;;;;0.08;0.08;;;;;;;;;;4976882;28;20038;-76
2022/12/08 02:33:06;;;;;;;0.10;0.00;;;;;;;;;;4976513;28;20473;-76
2022/12/08 02:35:41;;;;;;;0.30;0.10;;;;;;;;;;4976683;28;20031;-76
2022/12/08 02:38:16;;;;;;;1.48;0.00;;;;;;;;;;4976495;28;20033;-75
2022/12/08 02:40:48;;;;;;;0.57;0.10;;;;;;;;;;4976455;28;20030;-75
2022/12/08 02:43:14;;;;;;;0.10;0.10;;;;;;;;;;4976310;28;20433;-75
2022/12/08 02:45:47;;;;;;;3.70;0.10;;;;;;;;;;4976369;28;20034;-76
2022/12/08 02:48:13;;;;;;;1.17;0.20;;;;;;;;;;4976280;28;20103;-75
2022/12/08 02:50:39;;;;;;;7.07;0.50;;;;;;;;;;4976297;28;20070;-75
2022/12/08 02:53:05;;;;;;;1.17;0.25;;;;;;;;;;4976037;28;20031;-76
2022/12/08 02:55:49;;;;;;;3.30;0.32;;;;;;;;;;4976341;28;20038;-76
2022/12/08 02:58:14;;;;;;;3.78;0.40;;;;;;;;;;4976151;28;20034;-76
2022/12/08 03:00:47;;;;;;;0.82;0.20;;;;;;;;;;4975479;28;20528;-75
2022/12/08 03:03:18;;;;;;;1.98;0.43;;;;;;;;;;4975973;28;20029;-75
2022/12/08 03:06:08;;;;;;;2.05;0.30;;;;;;;;;;4976074;28;20030;-76
2022/12/08 03:08:38;;;;;;;8.63;0.40;;;;;;;;;;4975540;28;20027;-75
2022/12/08 03:11:09;;;;;;;2.28;0.20;;;;;;;;;;4975979;28;20043;-76
2022/12/08 03:13:45;;;;;;;1.15;0.20;;;;;;;;;;4958415;28;20042;-76
2022/12/08 03:16:14;;;;;;;2.38;0.35;;;;;;;;;;4975880;28;20031;-76
2022/12/08 03:18:42;;;;;;;1.98;0.10;;;;;;;;;;4975659;28;20386;-76
2022/12/08 03:21:09;;;;;;;0.55;0.10;;;;;;;;;;4975863;28;20046;-76
2022/12/08 03:23:36;;;;;;;4.32;0.30;;;;;;;;;;4975705;28;20030;-75
2022/12/08 03:26:12;;;;;;;2.58;0.30;;;;;;;;;;4975557;28;20023;-76
2022/12/08 03:28:39;;;;;;;3.20;0.40;;;;;;;;;;4975455;28;20038;-75
2022/12/08 03:31:06;;;;;;;0.80;0.10;;;;;;;;;;4975634;28;20027;-75
2022/12/08 03:33:35;;;;;;;2.25;0.10;;;;;;;;;;4975367;28;20026;-76
2022/12/08 03:36:02;;;;;;;2.75;0.10;;;;;;;;;;4975488;28;20051;-75
2022/12/08 03:38:36;;;;;;;1.77;0.10;;;;;;;;;;4975379;28;20070;-75
2022/12/08 03:41:17;;;;;;;3.55;0.40;;;;;;;;;;4975499;28;20382;-75
2022/12/08 03:43:43;;;;;;;1.85;0.10;;;;;;;;;;4975402;28;20027;-75
2022/12/08 03:46:09;;;;;;;0.70;0.10;;;;;;;;;;4975494;28;20026;-75
2022/12/08 03:48:35;;;;;;;1.77;0.30;;;;;;;;;;4957792;28;20077;-75
2022/12/08 03:51:01;;;;;;;0.68;0.10;;;;;;;;;;4975218;28;20031;-75
2022/12/08 03:53:27;;;;;;;2.58;0.30;;;;;;;;;;4974259;28;20729;-75
2022/12/08 03:55:53;;;;;;;0.65;0.30;;;;;;;;;;4975258;28;20038;-75
2022/12/08 03:58:19;;;;;;;0.28;0.13;;;;;;;;;;4975042;28;20035;-75
2022/12/08 04:00:45;;;;;;;0.77;0.15;;;;;;;;;;4975467;28;20039;-75
2022/12/08 04:03:11;;;;;;;1.90;0.30;;;;;;;;;;4975056;28;20612;-75
2022/12/08 04:05:37;;;;;;;2.40;0.20;;;;;;;;;;4975043;28;20042;-75
2022/12/08 04:08:03;;;;;;;1.00;0.22;;;;;;;;;;4974975;28;20069;-75
2022/12/08 04:10:29;;;;;;;0.57;0.15;;;;;;;;;;4974957;28;20386;-75
2022/12/08 04:12:55;;;;;;;0.73;0.10;;;;;;;;;;4974804;28;20035;-76
2022/12/08 04:15:21;;;;;;;1.05;0.28;;;;;;;;;;4974620;28;20089;-76
2022/12/08 04:17:47;;;;;;;0.80;0.50;;;;;;;;;;4974796;28;20023;-75
2022/12/08 04:20:13;;;;;;;3.92;0.70;;;;;;;;;;4974787;28;20470;-76
2022/12/08 04:22:39;;;;;;;39.47;3.47;;;;;;;;;;4975091;28;20070;-76
2022/12/08 04:25:06;;;;;;;8.50;1.73;;;;;;;;;;4974730;28;20059;-76
2022/12/08 04:27:32;;;;;;;3.50;0.60;;;;;;;;;;4974679;28;20358;-76
2022/12/08 04:29:58;;;;;;;2.60;0.35;;;;;;;;;;4974614;28;20402;-76
2022/12/08 04:32:24;;;;;;;0.20;0.20;;;;;;;;;;4974810;28;20042;-76
2022/12/08 04:34:50;;;;;;;0.22;0.10;;;;;;;;;;4974740;28;20030;-76
2022/12/08 04:37:16;;;;;;;1.52;0.10;;;;;;;;;;4974705;28;20027;-76
2022/12/08 04:39:42;;;;;;;0.10;0.00;;;;;;;;;;4974694;28;20054;-76
2022/12/08 04:42:08;;;;;;;0.38;0.10;;;;;;;;;;4974627;28;20031;-76
2022/12/08 04:44:34;;;;;;;0.20;0.10;;;;;;;;;;4974523;28;20084;-75
2022/12/08 04:47:00;;;;;;;3.25;0.60;;;;;;;;;;4974966;28;20035;-76
2022/12/08 04:49:26;;;;;;;1.13;0.10;;;;;;;;;;4974490;28;20046;-76
2022/12/08 04:51:52;;;;;;;1.95;0.30;;;;;;;;;;4974641;28;20027;-75
2022/12/08 04:54:18;;;;;;;1.65;0.10;;;;;;;;;;4974333;28;20051;-76
2022/12/08 04:56:44;;;;;;;0.30;0.13;;;;;;;;;;4974559;28;20576;-76
2022/12/08 04:59:11;;;;;;;0.75;0.10;;;;;;;;;;4974616;28;20051;-75
2022/12/08 05:01:37;;;;;;;1.38;0.10;;;;;;;;;;4974452;28;20031;-76
2022/12/08 05:04:03;;;;;;;0.75;0.10;;;;;;;;;;4993857;28;20065;-75
2022/12/08 05:06:29;;;;;;;1.88;0.10;;;;;;;;;;4993868;28;20030;-76
2022/12/08 05:08:55;;;;;;;2.22;0.17;;;;;;;;;;4993660;28;20509;-76
2022/12/08 05:11:21;;;;;;;1.10;0.10;;;;;;;;;;4993805;28;20037;-76
2022/12/08 05:13:47;;;;;;;3.20;0.40;;;;;;;;;;4993824;28;20027;-76
2022/12/08 05:16:13;;;;;;;1.65;0.20;;;;;;;;;;4993617;28;20027;-75
2022/12/08 05:18:40;;;;;;;1.95;0.20;;;;;;;;;;4993731;28;20042;-76
2022/12/08 05:21:06;;;;;;;2.28;0.20;;;;;;;;;;4993345;28;20034;-75
2022/12/08 05:23:32;;;;;;;2.42;0.20;;;;;;;;;;4995791;28;20022;-75
2022/12/08 05:25:59;;;;;;;0.47;0.10;;;;;;;;;;4997243;28;20366;-76
2022/12/08 05:28:25;;;;;;;0.45;0.30;;;;;;;;;;4997213;28;20082;-75
2022/12/08 05:30:51;;;;;;;1.38;0.10;;;;;;;;;;4996850;28;20435;-75
2022/12/08 05:33:17;;;;;;;3.72;0.40;;;;;;;;;;4996822;28;20030;-75
2022/12/08 05:35:43;;;;;;;1.48;0.20;;;;;;;;;;4984525;28;20362;-75
2022/12/08 05:38:09;;;;;;;4.88;0.60;;;;;;;;;;4977906;28;20031;-75
2022/12/08 05:40:37;;;;;;;4.22;0.40;;;;;;;;;;4977568;28;20022;-75
2022/12/08 05:43:05;;;;;;;2.80;0.30;;;;;;;;;;4977591;28;20073;-75
2022/12/08 05:45:31;;;;;;;0.40;0.10;;;;;;;;;;4977879;28;20034;-75
2022/12/08 05:47:57;;;;;;;2.83;0.17;;;;;;;;;;4977415;28;20027;-75
2022/12/08 05:50:23;;;;;;;4.20;0.22;;;;;;;;;;4977374;28;20041;-75
2022/12/08 05:52:49;;;;;;;3.22;0.60;;;;;;;;;;4977798;28;20106;-75
2022/12/08 05:55:15;;;;;;;0.88;0.20;;;;;;;;;;4977086;28;20390;-75
2022/12/08 05:57:41;;;;;;;4.22;0.50;;;;;;;;;;4977512;28;20114;-75
2022/12/08 06:00:07;;;;;;;5.88;0.82;;;;;;;;;;4977280;28;20035;-75
2022/12/08 06:02:34;;;;;;;5.18;0.30;;;;;;;;;;4977163;28;20019;-75
2022/12/08 06:05:00;;;;;;;1.35;0.45;;;;;;;;;;4977270;28;20069;-75
2022/12/08 06:07:26;;;;;;;2.45;0.40;;;;;;;;;;4977194;28;20027;-75
2022/12/08 06:09:52;;;;;;;0.80;0.50;;;;;;;;;;4977048;28;20031;-75
2022/12/08 06:12:18;;;;;;;3.10;0.50;;;;;;;;;;4976986;28;20362;-76
2022/12/08 06:14:44;;;;;;;3.67;0.95;;;;;;;;;;4976997;28;20033;-75
2022/12/08 06:17:10;;;;;;;4.40;0.40;;;;;;;;;;4977595;28;20110;-76
2022/12/08 06:19:36;;;;;;;5.45;0.60;;;;;;;;;;4977022;28;20062;-76
2022/12/08 06:22:02;;;;;;;4.43;0.40;;;;;;;;;;4976963;28;20027;-75
2022/12/08 06:24:28;;;;;;;4.18;0.77;;;;;;;;;;4976849;28;20509;-75
2022/12/08 06:26:54;;;;;;;2.42;0.70;;;;;;;;;;4976714;28;20098;-75
2022/12/08 06:29:20;;;;;;;3.08;0.65;;;;;;;;;;4976722;28;20035;-75
2022/12/08 06:31:46;;;;;;;2.33;0.80;;;;;;;;;;4976367;28;20085;-75
2022/12/08 06:34:12;;;;;;;3.28;0.75;;;;;;;;;;4991822;28;20105;-75
2022/12/08 06:36:38;;;;;;;2.35;0.60;;;;;;;;;;4996021;28;20026;-75
2022/12/08 06:39:04;;;;;;;3.22;0.60;;;;;;;;;;4995942;28;20030;-75
2022/12/08 06:41:30;;;;;;;7.88;0.75;;;;;;;;;;4995586;28;20037;-75
2022/12/08 06:43:56;;;;;;;3.30;0.50;;;;;;;;;;4996027;28;20037;-75
2022/12/08 06:46:22;;;;;;;1.23;0.50;;;;;;;;;;4995741;28;20018;-75
2022/12/08 06:48:49;;;;;;;3.17;0.40;;;;;;;;;;4995684;28;20109;-75
2022/12/08 06:51:16;;;;;;;2.38;0.47;;;;;;;;;;4995805;28;20026;-75
2022/12/08 06:53:43;;;;;;;5.72;1.10;;;;;;;;;;4995554;28;20054;-75
2022/12/08 06:56:09;;;;;;;5.35;1.40;;;;;;;;;;4995452;28;20539;-75
2022/12/08 06:58:35;;;;;;;5.10;1.70;;;;;;;;;;4995542;28;20026;-75
2022/12/08 07:01:09;;;;;;;2.90;1.38;;;;;;;;;;4995469;28;20105;-75
2022/12/08 07:03:36;;;;;;;2.70;1.20;;;;;;;;;;4995450;28;20030;-75
2022/12/08 07:06:02;;;;;;;3.50;1.20;;;;;;;;;;4977858;28;20038;-75
2022/12/08 07:08:28;;;;;;;5.15;1.48;;;;;;;;;;4983385;28;20031;-75
2022/12/08 07:10:54;;;;;;;4.13;1.25;;;;;;;;;;4974750;28;20475;-75
2022/12/08 07:13:19;;;;;;;4.40;1.15;;;;;;;;;;4975886;28;20022;-75
2022/12/08 07:15:46;;;;;;;2.80;0.80;;;;;;;;;;4975863;28;20030;-75
2022/12/08 07:18:11;;;;;;;2.65;0.80;;;;;;;;;;4975566;28;20037;-75
2022/12/08 07:20:38;;;;;;;3.40;1.15;;;;;;;;;;4975707;28;20026;-75
2022/12/08 07:23:04;;;;;;;4.20;0.98;;;;;;;;;;4975900;28;20030;-75
2022/12/08 07:25:30;;;;;;;3.47;1.20;;;;;;;;;;4975651;28;20478;-75
2022/12/08 07:27:56;;;;;;;4.90;1.25;;;;;;;;;;4975312;28;20461;-75
2022/12/08 07:30:22;;;;;;;4.05;0.68;;;;;;;;;;4975369;28;20077;-75
2022/12/08 07:32:48;;;;;;;6.43;1.33;;;;;;;;;;4975527;28;20110;-75
2022/12/08 07:35:14;;;;;;;5.80;1.23;;;;;;;;;;4975480;28;20054;-75
2022/12/08 07:37:40;;;;;;;1.75;0.75;;;;;;;;;;4975721;28;20026;-75
2022/12/08 07:40:07;;;;;;;2.45;1.30;;;;;;;;;;4975386;28;20041;-75
2022/12/08 07:42:33;;;;;;;1.35;0.75;;;;;;;;;;4975291;28;20362;-75
2022/12/08 07:44:59;;;;;;;3.03;1.70;;;;;;;;;;4975679;28;20034;-75
2022/12/08 07:47:25;;;;;;;4.80;1.80;;;;;;;;;;4975110;28;20592;-75
2022/12/08 07:49:51;;;;;;;3.38;1.55;;;;;;;;;;4975009;28;20109;-75
2022/12/08 07:52:17;;;;;;;3.10;1.20;;;;;;;;;;4975323;28;20058;-75
2022/12/08 07:54:43;;;;;;;5.10;1.50;;;;;;;;;;4974965;28;20074;-75
2022/12/08 07:57:09;;;;;;;4.10;1.30;;;;;;;;;;4957909;28;20377;-75
2022/12/08 07:59:36;;;;;;;4.82;1.52;;;;;;;;;;4976792;28;20514;-75
2022/12/08 08:02:02;;;;;;;2.97;1.13;;;;;;;;;;4993658;28;20022;-74
2022/12/08 08:04:28;;;;;;;2.97;1.60;;;;;;;;;;4994508;28;20469;-75
2022/12/08 08:06:54;;;;;;;4.43;1.85;;;;;;;;;;4994350;28;20026;-75
2022/12/08 08:09:20;;;;;;;5.00;1.95;;;;;;;;;;4994386;28;20027;-75
2022/12/08 08:11:47;;;;;;;4.03;1.92;;;;;;;;;;4994340;28;20028;-75
2022/12/08 08:14:13;;;;;;;7.70;1.88;;;;;;;;;;4989655;28;20401;-74
2022/12/08 08:16:45;;;;;;;6.60;2.40;;;;;;;;;;4985995;28;20495;-75
2022/12/08 08:19:11;;;;;;;4.20;2.40;;;;;;;;;;4985201;28;20037;-75
2022/12/08 08:21:37;;;;;;;3.70;2.33;;;;;;;;;;4979414;28;20414;-75
2022/12/08 08:24:03;;;;;;;6.35;2.67;;;;;;;;;;4974791;28;20031;-75
2022/12/08 08:26:29;;;;;;;3.97;2.65;;;;;;;;;;4974914;28;20085;-75
2022/12/08 08:28:55;;;;;;;6.47;2.88;;;;;;;;;;4974494;28;20030;-75
2022/12/08 08:31:25;;;;;;;5.28;3.63;;;;;;;;;;4974584;28;20039;-75
2022/12/08 08:33:51;;;;;;;6.00;3.25;;;;;;;;;;4974755;28;20027;-75
2022/12/08 08:36:17;;;;;;;2.25;1.95;;;;;;;;;;4974902;28;20085;-74
2022/12/08 08:38:43;;;;;;;8.77;1.33;;;;;;;;;;4990019;28;20030;-75
2022/12/08 08:41:10;;;;;;;2.60;1.35;;;;;;;;;;4993871;28;20377;-75
2022/12/08 08:43:36;;;;;;;5.30;1.40;;;;;;;;;;4994019;28;20030;-75
2022/12/08 08:46:03;;;;;;;3.47;1.52;;;;;;;;;;4993966;28;20018;-75
2022/12/08 08:48:29;;;;;;;4.80;1.63;;;;;;;;;;4984838;28;20026;-75
2022/12/08 08:50:56;;;;;;;3.92;1.38;;;;;;;;;;4993798;28;20046;-75
2022/12/08 08:53:22;;;;;;;3.42;1.50;;;;;;;;;;4990935;28;20051;-75
2022/12/08 08:55:48;;;;;;;5.40;1.70;;;;;;;;;;4982983;28;20027;-75
2022/12/08 08:58:14;;;;;;;3.83;1.42;;;;;;;;;;4992454;28;20492;-75
2022/12/08 09:00:40;;;;;;;5.20;2.25;;;;;;;;;;4978322;28;20466;-75
2022/12/08 09:03:06;;;;;;;4.95;1.70;;;;;;;;;;4978278;28;20106;-75
2022/12/08 09:05:32;;;;;;;2.72;1.67;;;;;;;;;;4977939;28;20058;-75
2022/12/08 09:07:58;;;;;;;5.10;1.98;;;;;;;;;;4978106;28;20106;-75
2022/12/08 09:10:24;;;;;;;3.08;1.88;;;;;;;;;;4978283;28;20031;-75
2022/12/08 09:12:50;;;;;;;6.03;1.95;;;;;;;;;;4983863;28;20092;-75
2022/12/08 09:15:19;;;;;;;5.32;2.45;;;;;;;;;;4987222;28;20501;-75
2022/12/08 09:17:45;;;;;;;4.10;2.17;;;;;;;;;;4978063;28;20019;-75
2022/12/08 09:20:11;;;;;;;6.13;2.65;;;;;;;;;;4977812;28;20031;-75
2022/12/08 09:22:37;;;;;;;7.05;2.72;;;;;;;;;;4977991;28;20081;-75
2022/12/08 09:25:03;;;;;;;6.13;2.22;;;;;;;;;;4977610;28;20370;-75
2022/12/08 09:27:30;;;;;;;5.78;2.17;;;;;;;;;;4980745;28;20032;-75
2022/12/08 09:29:56;;;;;;;5.90;1.95;;;;;;;;;;4997007;28;20027;-75
2022/12/08 09:32:22;;;;;;;4.88;1.70;;;;;;;;;;4995690;28;20029;-75
2022/12/08 09:34:48;;;;;;;5.32;1.50;;;;;;;;;;5003791;28;20030;-74
2022/12/08 09:37:14;;;;;;;4.88;1.40;;;;;;;;;;4984174;28;20414;-75
2022/12/08 09:39:40;;;;;;;4.05;1.30;;;;;;;;;;4996997;28;20023;-75
2022/12/08 09:42:06;;;;;;;4.15;1.48;;;;;;;;;;4997254;28;20065;-75
2022/12/08 09:44:36;;;;;;;2.40;1.42;;;;;;;;;;4986440;28;20035;-75
2022/12/08 09:47:04;;;;;;;5.18;1.25;;;;;;;;;;4977639;28;20019;-75
2022/12/08 09:49:38;;;;;;;3.95;1.10;;;;;;;;;;4977353;28;20061;-75
2022/12/08 09:52:05;;;;;;;4.50;1.30;;;;;;;;;;4977442;28;20114;-75
2022/12/08 09:54:33;;;;;;;1.58;0.85;;;;;;;;;;4977089;28;20439;-75
2022/12/08 09:57:01;;;;;;;3.70;0.80;;;;;;;;;;4990049;28;20061;-75
2022/12/08 09:59:30;;;;;;;2.15;0.75;;;;;;;;;;4996689;28;20038;-75
2022/12/08 10:01:56;;;;;;;5.63;0.90;;;;;;;;;;4996610;28;20026;-75
2022/12/08 10:04:22;;;;;;;5.88;0.90;;;;;;;;;;4996730;28;20034;-75
2022/12/08 10:07:07;;;;;;;4.95;1.30;;;;;;;;;;4979083;28;20030;-75
2022/12/08 10:09:45;;;;;;;7.40;1.00;;;;;;;;;;4996271;28;20031;-75
2022/12/08 10:12:17;;;;;;;3.67;0.65;;;;;;;;;;4996405;28;20157;-75
2022/12/08 10:14:51;;;;;;;3.00;0.57;;;;;;;;;;4996314;28;20035;-75
2022/12/08 10:17:21;;;;;;;1.73;0.30;;;;;;;;;;4996555;28;20038;-75
2022/12/08 10:19:48;;;;;;;1.27;0.20;;;;;;;;;;4996126;28;20029;-75
2022/12/08 10:22:20;;;;;;;1.25;0.20;;;;;;;;;;4996191;28;20381;-75
2022/12/08 10:24:59;;;;;;;1.95;0.50;;;;;;;;;;4996161;28;20027;-75
2022/12/08 10:27:25;;;;;;;1.17;0.20;;;;;;;;;;4996230;28;20080;-75
2022/12/08 10:29:52;;;;;;;2.17;0.30;;;;;;;;;;4995940;28;20112;-75
2022/12/08 10:32:19;;;;;;;1.08;0.50;;;;;;;;;;4996113;28;20034;-75
2022/12/08 10:34:58;;;;;;;2.78;0.40;;;;;;;;;;4996054;28;20357;-75
2022/12/08 10:37:24;;;;;;;2.22;0.60;;;;;;;;;;4996174;28;20026;-75
2022/12/08 10:39:58;;;;;;;1.83;0.60;;;;;;;;;;4975336;28;20046;-75
2022/12/08 10:42:24;;;;;;;1.15;0.30;;;;;;;;;;4983854;28;20037;-75
2022/12/08 10:45:16;;;;;;;0.95;0.30;;;;;;;;;;4995988;28;20029;-75
2022/12/08 10:47:43;;;;;;;0.63;0.20;;;;;;;;;;4995929;28;20034;-75
2022/12/08 10:50:16;;;;;;;2.38;0.40;;;;;;;;;;4995184;28;20026;-75
2022/12/08 10:52:41;;;;;;;4.68;0.50;;;;;;;;;;4982418;28;20382;-75
2022/12/08 10:55:17;;;;;;;1.05;0.60;;;;;;;;;;4978057;28;20054;-74
2022/12/08 10:57:43;;;;;;;1.45;0.25;;;;;;;;;;4994840;28;20440;-75
2022/12/08 11:00:17;;;;;;;4.43;0.50;;;;;;;;;;4995127;28;20485;-75
2022/12/08 11:02:52;;;;;;;0.57;0.30;;;;;;;;;;4984625;28;20023;-75
2022/12/08 11:05:18;;;;;;;2.50;0.40;;;;;;;;;;4975806;28;20030;-74
2022/12/08 11:07:49;;;;;;;20.42;0.75;;;;;;;;;;4975893;28;20026;-75
2022/12/08 11:10:18;;;;;;;2.75;0.40;;;;;;;;;;4975649;28;20062;-75
2022/12/08 11:12:44;;;;;;;2.35;0.47;;;;;;;;;;4975868;28;20110;-75
2022/12/08 11:15:15;;;;;;;4.82;0.70;;;;;;;;;;4987140;28;20486;-75
2022/12/08 11:17:42;;;;;;;4.53;1.15;;;;;;;;;;4995377;28;20076;-75
2022/12/08 11:20:08;;;;;;;2.83;0.50;;;;;;;;;;4994676;28;20038;-75
2022/12/08 11:22:38;;;;;;;1.77;0.40;;;;;;;;;;4994940;28;20030;-75
2022/12/08 11:25:09;;;;;;;1.23;0.60;;;;;;;;;;4995126;28;20113;-75
2022/12/08 11:27:36;;;;;;;0.95;0.20;;;;;;;;;;4995720;28;20027;-75
2022/12/08 11:30:03;;;;;;;4.53;0.47;;;;;;;;;;4994864;28;20038;-75
2022/12/08 11:32:29;;;;;;;0.40;0.20;;;;;;;;;;4994687;28;20031;-75
2022/12/08 11:34:57;;;;;;;4.07;0.20;;;;;;;;;;4994317;28;20362;-75
2022/12/08 11:37:30;;;;;;;1.05;0.20;;;;;;;;;;4995037;28;20081;-75
2022/12/08 11:39:58;;;;;;;1.70;0.40;;;;;;;;;;4994726;28;20037;-75
2022/12/08 11:42:28;;;;;;;0.63;0.20;;;;;;;;;;4994711;28;20463;-75
2022/12/08 11:44:54;;;;;;;0.80;0.30;;;;;;;;;;4994709;28;20022;-75
2022/12/08 11:47:24;;;;;;;3.17;0.45;;;;;;;;;;4994848;28;20102;-76
2022/12/08 11:49:55;;;;;;;3.30;0.60;;;;;;;;;;4994162;28;20129;-75
2022/12/08 11:52:30;;;;;;;2.72;0.32;;;;;;;;;;4977157;28;20280;-75
2022/12/08 11:54:59;;;;;;;2.25;0.28;;;;;;;;;;4994234;28;20060;-75
2022/12/08 11:57:26;;;;;;;1.25;0.30;;;;;;;;;;4994683;28;20030;-75
2022/12/08 11:59:53;;;;;;;0.75;0.20;;;;;;;;;;4994566;28;20118;-75
2022/12/08 12:02:21;;;;;;;0.93;0.15;;;;;;;;;;4979682;28;20031;-75
2022/12/08 12:04:50;;;;;;;2.58;0.28;;;;;;;;;;4975092;28;20061;-75
2022/12/08 12:07:35;;;;;;;0.63;0.20;;;;;;;;;;4975051;28;20025;-75
2022/12/08 12:10:16;;;;;;;1.02;0.10;;;;;;;;;;4973475;28;20459;-75
2022/12/08 12:12:51;;;;;;;0.77;0.20;;;;;;;;;;4973821;28;20074;-75
2022/12/08 12:15:36;;;;;;;1.70;0.15;;;;;;;;;;4956522;28;20027;-75
2022/12/08 12:18:04;;;;;;;2.28;0.30;;;;;;;;;;4973945;28;20098;-75
2022/12/08 12:20:36;;;;;;;1.58;0.10;;;;;;;;;;4974196;28;20110;-76
2022/12/08 12:23:04;;;;;;;3.20;0.20;;;;;;;;;;4974921;28;20031;-75
2022/12/08 12:25:31;;;;;;;1.27;0.30;;;;;;;;;;4974985;28;20462;-75
2022/12/08 12:27:59;;;;;;;0.50;0.20;;;;;;;;;;4974767;28;20102;-75
2022/12/08 12:30:27;;;;;;;1.63;0.30;;;;;;;;;;4974676;28;20402;-75
2022/12/08 12:32:55;;;;;;;0.90;0.22;;;;;;;;;;4975986;28;20038;-76
2022/12/08 12:35:36;;;;;;;3.00;0.30;;;;;;;;;;4989584;28;20385;-75
2022/12/08 12:38:59;;;;;;;2.90;0.30;;;;;;;;;;4981314;28;20027;-75
2022/12/08 12:41:02;;;;;;;0.20;0.20;;;;;;;;;;4978360;28;20050;-75
2022/12/08 12:43:29;;;;;;;1.90;0.30;;;;;;;;;;4978675;28;20466;-75
2022/12/08 12:46:15;;;;;;;0.40;0.30;;;;;;;;;;4978411;28;20414;-76
2022/12/08 12:48:41;;;;;;;1.15;0.90;;;;;;;;;;4978472;28;20110;-75
2022/12/08 12:51:43;;;;;;;0.60;0.30;;;;;;;;;;4978363;28;20455;-75
2022/12/08 12:54:26;;;;;;;3.38;0.93;;;;;;;;;;4943358;29;20058;-75
2022/12/08 12:57:03;;;;;;;2.15;0.70;;;;;;;;;;4939542;29;20183;-75
2022/12/08 12:59:42;;;;;;;2.53;0.45;;;;;;;;;;4939908;29;20055;-75
2022/12/08 13:02:25;;;;;;;1.60;0.90;;;;;;;;;;4939809;29;20039;-75
2022/12/08 13:05:00;;;;;;;2.50;0.50;;;;;;;;;;4939768;29;20746;-75
2022/12/08 13:07:29;;;;;;;1.50;0.30;;;;;;;;;;4939821;29;20069;-76
2022/12/08 13:09:57;;;;;;;2.60;1.60;;;;;;;;;;4939599;29;20082;-75
2022/12/08 13:12:23;;;;;;;27.80;12.25;;;;;;;;;;4939619;29;20031;-75
2022/12/08 13:14:50;;;;;;;2.90;1.02;;;;;;;;;;4941337;29;20110;-75
2022/12/08 13:17:24;;;;;;;4.95;2.92;;;;;;;;;;4958546;29;20023;-75
2022/12/08 13:19:53;;;;;;;3.53;1.90;;;;;;;;;;4944880;28;20175;-75
2022/12/08 13:22:38;;;;;;;2.75;1.25;;;;;;;;;;4939494;29;20374;-76
2022/12/08 13:25:22;;;;;;;3.83;2.60;;;;;;;;;;4939259;29;20028;-76
2022/12/08 13:27:52;;;;;;;13.05;11.95;;;;;;;;;;4939371;29;20024;-75
2022/12/08 13:30:50;;;;;;;2.97;1.33;;;;;;;;;;4943323;29;20027;-76
2022/12/08 13:33:18;;;;;;;1.00;0.90;;;;;;;;;;4921360;28;20044;-76
2022/12/08 13:35:47;;;;;;;2.60;1.42;;;;;;;;;;4945240;29;20032;-75
2022/12/08 13:38:17;;;;;;;3.25;1.13;;;;;;;;;;4958249;28;20513;-76
2022/12/08 13:40:43;;;;;;;0.70;0.50;;;;;;;;;;4958243;28;20031;-75
2022/12/08 13:43:15;;;;;;;2.53;0.30;;;;;;;;;;4957690;28;20024;-74
2022/12/08 13:45:42;;;;;;;2.53;0.35;;;;;;;;;;4950346;29;20031;-75
2022/12/08 13:48:25;;;;;;;0.85;0.15;;;;;;;;;;4939321;28;20357;-75
2022/12/08 13:50:54;;;;;;;2.45;0.20;;;;;;;;;;4939227;29;20028;-76
2022/12/08 13:53:28;;;;;;;1.40;0.67;;;;;;;;;;4943604;28;20483;-75
2022/12/08 13:55:56;;;;;;;3.05;0.30;;;;;;;;;;4977326;28;20023;-75
2022/12/08 13:58:30;;;;;;;1.10;0.65;;;;;;;;;;4977329;28;20450;-75
2022/12/08 14:01:13;;;;;;;7.50;3.00;;;;;;;;;;4977539;28;20038;-75
2022/12/08 14:03:52;;;;;;;7.28;2.38;;;;;;;;;;4989023;28;20079;-76
2022/12/08 14:06:19;;;;;;;2.60;1.00;;;;;;;;;;4996582;28;20045;-75
2022/12/08 14:08:48;;;;;;;4.97;2.13;;;;;;;;;;4996426;28;20022;-75
2022/12/08 14:11:32;;;;;;;3.60;0.88;;;;;;;;;;4996775;28;20097;-75
2022/12/08 14:13:59;;;;;;;2.15;0.30;;;;;;;;;;4996773;28;20022;-75
2022/12/08 14:16:29;;;;;;;1.27;0.40;;;;;;;;;;4996529;28;20022;-76
2022/12/08 14:18:55;;;;;;;1.30;0.22;;;;;;;;;;4996375;28;20058;-75
2022/12/08 14:21:21;;;;;;;2.67;0.50;;;;;;;;;;4996164;28;20061;-75
2022/12/08 14:23:46;;;;;;;1.45;0.28;;;;;;;;;;4996323;28;20030;-75
2022/12/08 14:26:12;;;;;;;0.80;0.38;;;;;;;;;;4995938;28;20084;-76
2022/12/08 14:28:39;;;;;;;1.70;0.40;;;;;;;;;;4996234;28;20101;-76
2022/12/08 14:31:05;;;;;;;2.92;0.82;;;;;;;;;;4995983;28;20410;-75
2022/12/08 14:33:31;;;;;;;1.40;0.60;;;;;;;;;;4995871;28;20034;-75
2022/12/08 14:35:58;;;;;;;6.90;0.75;;;;;;;;;;4996141;28;20350;-75
2022/12/08 14:38:25;;;;;;;0.77;0.50;;;;;;;;;;4995919;28;20035;-75
2022/12/08 14:41:02;;;;;;;1.30;1.00;;;;;;;;;;4995813;28;20449;-75
2022/12/08 14:43:29;;;;;;;3.13;1.70;;;;;;;;;;4988777;28;20054;-75
2022/12/08 14:46:15;;;;;;;6.22;2.13;;;;;;;;;;4978318;28;20033;-75
2022/12/08 14:48:42;;;;;;;7.00;2.13;;;;;;;;;;4995351;28;20466;-75
2022/12/08 14:51:20;;;;;;;9.50;3.80;;;;;;;;;;4978301;28;20027;-75
2022/12/08 14:53:46;;;;;;;11.80;5.80;;;;;;;;;;4995302;28;20050;-75
2022/12/08 14:56:18;;;;;;;10.93;6.45;;;;;;;;;;4994829;28;20039;-75